Terminal Aerodrome Forecast
Issued by NWS

Home | Current Version | Previous Version | Text Only | Print | Product List | Glossary On
Versions: 1 2 3 4 5 6 7 8 9 10 11 12 13 14
000
FTUS44 KLZK 130500
TAFBPK
TAF
KBPK 130533Z 1306/1406 20003KT P6SM SKC
      TEMPO 1306/1309 4SM BR
     FM130900 20003KT 4SM BR SKC
      TEMPO 1309/1313 2SM BR
     FM131400 23005KT P6SM SKC
     FM131800 23007KT P6SM SCT050
     FM140000 20004KT P6SM SCT050 SCT250
     FM140400 20003KT P6SM VCTS SCT050CB BKN100=

USA.gov is the U.S. government's official web portal to all federal, state and local government web resources and services.